Time;durP1;ratioP1;P1;durP2;ratioP2;P2;SDS_P1;SDS_P2;PMS_P1;PMS_P2;Temp;Humidity;BMP_temperature;BMP_pressure;BME280_temperature;BME280_humidity;BME280_pressure;Samples;Min_cycle;Max_cycle;Signal;HPM_P1;HPM_P2
2023/11/09 00:01:31;;;;;;;22.52;17.88;;;;;;;;;;5053040;28;20020;-57
2023/11/09 00:03:57;;;;;;;24.23;18.63;;;;;;;;;;5053128;28;20020;-56
2023/11/09 00:06:23;;;;;;;24.05;18.02;;;;;;;;;;5053190;28;20028;-57
2023/11/09 00:08:49;;;;;;;24.85;17.20;;;;;;;;;;5053025;28;20423;-55
2023/11/09 00:11:15;;;;;;;21.48;16.80;;;;;;;;;;5053101;28;20036;-53
2023/11/09 00:13:42;;;;;;;24.15;18.05;;;;;;;;;;5052850;28;20021;-52
2023/11/09 00:16:11;;;;;;;18.13;14.75;;;;;;;;;;5052869;28;20025;-52
2023/11/09 00:18:37;;;;;;;16.90;13.60;;;;;;;;;;5051445;28;20048;-54
2023/11/09 00:21:04;;;;;;;19.65;13.77;;;;;;;;;;5052826;28;20475;-55
2023/11/09 00:23:31;;;;;;;17.60;13.52;;;;;;;;;;5051514;28;20052;-56
2023/11/09 00:25:58;;;;;;;25.05;16.85;;;;;;;;;;5050173;28;20029;-56
2023/11/09 00:28:24;;;;;;;21.38;15.98;;;;;;;;;;5041293;28;20025;-56
2023/11/09 00:30:50;;;;;;;27.45;17.40;;;;;;;;;;5052604;28;20037;-57
2023/11/09 00:33:17;;;;;;;22.63;16.35;;;;;;;;;;5052491;28;20118;-54
2023/11/09 00:35:44;;;;;;;22.15;16.08;;;;;;;;;;5052670;28;20029;-57
2023/11/09 00:38:14;;;;;;;23.17;16.90;;;;;;;;;;5052445;28;20074;-52
2023/11/09 00:40:40;;;;;;;23.15;16.73;;;;;;;;;;5052520;28;20076;-56
2023/11/09 00:43:06;;;;;;;20.10;15.57;;;;;;;;;;5038916;28;20460;-55
2023/11/09 00:45:34;;;;;;;21.60;16.40;;;;;;;;;;5050575;28;20029;-54
2023/11/09 00:48:00;;;;;;;23.98;16.92;;;;;;;;;;5052256;28;20025;-55
2023/11/09 00:50:26;;;;;;;24.90;17.27;;;;;;;;;;5052327;28;20028;-53
2023/11/09 00:52:52;;;;;;;22.35;16.70;;;;;;;;;;5052139;28;20024;-55
2023/11/09 00:55:19;;;;;;;19.83;16.15;;;;;;;;;;5052575;28;20027;-54
2023/11/09 00:57:45;;;;;;;20.70;15.75;;;;;;;;;;5052174;28;20066;-52
2023/11/09 01:00:11;;;;;;;25.52;15.32;;;;;;;;;;5052044;28;20425;-56
2023/11/09 01:02:38;;;;;;;19.88;15.43;;;;;;;;;;5052359;28;20025;-55
2023/11/09 01:05:07;;;;;;;23.95;15.02;;;;;;;;;;5050745;28;20028;-56
2023/11/09 01:07:33;;;;;;;19.45;15.93;;;;;;;;;;5040961;28;20057;-57
2023/11/09 01:09:59;;;;;;;19.85;14.13;;;;;;;;;;5050661;28;20025;-58
2023/11/09 01:12:25;;;;;;;20.02;14.50;;;;;;;;;;5045905;28;20059;-55
2023/11/09 01:14:52;;;;;;;20.20;14.95;;;;;;;;;;5036629;28;20024;-58
2023/11/09 01:17:18;;;;;;;22.20;15.07;;;;;;;;;;5048349;28;20490;-57
2023/11/09 01:19:44;;;;;;;20.98;15.45;;;;;;;;;;5050400;28;20029;-57
2023/11/09 01:22:10;;;;;;;20.33;15.85;;;;;;;;;;5050420;28;20463;-56
2023/11/09 01:24:36;;;;;;;24.00;16.38;;;;;;;;;;5051640;28;20028;-54
2023/11/09 01:27:02;;;;;;;25.08;15.70;;;;;;;;;;5051656;28;20120;-53
2023/11/09 01:29:28;;;;;;;20.80;16.35;;;;;;;;;;5051835;28;20031;-53
2023/11/09 01:31:54;;;;;;;23.05;15.80;;;;;;;;;;5051241;28;20398;-52
2023/11/09 01:34:21;;;;;;;20.40;13.73;;;;;;;;;;5051685;28;20301;-52
2023/11/09 01:36:47;;;;;;;17.77;13.25;;;;;;;;;;5051513;28;20024;-54
2023/11/09 01:39:13;;;;;;;17.25;13.35;;;;;;;;;;5051704;28;20028;-54
2023/11/09 01:41:41;;;;;;;17.50;13.45;;;;;;;;;;5051489;28;20049;-54
2023/11/09 01:44:07;;;;;;;15.90;12.40;;;;;;;;;;5051511;28;20115;-54
2023/11/09 01:46:34;;;;;;;15.68;12.60;;;;;;;;;;5051438;28;20040;-51
2023/11/09 01:49:00;;;;;;;15.43;12.73;;;;;;;;;;5051315;28;20485;-53
2023/11/09 01:51:27;;;;;;;16.10;12.85;;;;;;;;;;5051513;28;20040;-52
2023/11/09 01:53:54;;;;;;;20.13;12.95;;;;;;;;;;5048000;28;20378;-55
2023/11/09 01:56:20;;;;;;;17.55;12.35;;;;;;;;;;5041174;28;20029;-52
2023/11/09 01:58:48;;;;;;;16.65;12.18;;;;;;;;;;5054749;28;20107;-54
2023/11/09 02:01:14;;;;;;;18.73;12.07;;;;;;;;;;5055503;28;20021;-52
2023/11/09 02:03:43;;;;;;;17.00;11.80;;;;;;;;;;5055155;28;20070;-51
2023/11/09 02:06:10;;;;;;;14.43;10.80;;;;;;;;;;5055156;28;20463;-54
2023/11/09 02:08:40;;;;;;;14.00;11.60;;;;;;;;;;5055314;28;20021;-54
2023/11/09 02:11:06;;;;;;;14.50;11.38;;;;;;;;;;5053873;28;20113;-51
2023/11/09 02:13:33;;;;;;;13.52;11.05;;;;;;;;;;5055256;28;20455;-53
2023/11/09 02:16:00;;;;;;;14.48;10.45;;;;;;;;;;5055019;28;20047;-55
2023/11/09 02:18:26;;;;;;;16.42;10.80;;;;;;;;;;5053646;28;20214;-51
2023/11/09 02:20:53;;;;;;;16.63;10.23;;;;;;;;;;5052687;28;20430;-53
2023/11/09 02:23:23;;;;;;;14.85;10.13;;;;;;;;;;5042356;28;20036;-51
2023/11/09 02:25:49;;;;;;;11.40;8.50;;;;;;;;;;5053634;28;20044;-53
2023/11/09 02:28:15;;;;;;;9.18;7.97;;;;;;;;;;5053491;28;20040;-55
2023/11/09 02:30:41;;;;;;;10.30;8.07;;;;;;;;;;5053543;28;20029;-53
2023/11/09 02:33:08;;;;;;;11.23;8.68;;;;;;;;;;5051809;28;20029;-55
2023/11/09 02:35:34;;;;;;;12.20;9.18;;;;;;;;;;5051928;28;20043;-52
2023/11/09 02:38:00;;;;;;;9.55;7.60;;;;;;;;;;5052091;28;20017;-54
2023/11/09 02:40:28;;;;;;;9.18;7.47;;;;;;;;;;5050562;28;20041;-57
2023/11/09 02:42:54;;;;;;;9.73;7.35;;;;;;;;;;5049120;28;20036;-56
2023/11/09 02:45:20;;;;;;;9.15;7.32;;;;;;;;;;5047562;28;20029;-56
2023/11/09 02:47:45;;;;;;;8.35;6.65;;;;;;;;;;5046319;28;20074;-56
2023/11/09 02:50:11;;;;;;;8.30;6.43;;;;;;;;;;5048673;28;20382;-55
2023/11/09 02:52:38;;;;;;;8.05;6.78;;;;;;;;;;5052857;28;20020;-55
2023/11/09 02:55:04;;;;;;;6.88;6.00;;;;;;;;;;5053874;28;20025;-56
2023/11/09 02:57:30;;;;;;;8.00;6.05;;;;;;;;;;5053477;28;20074;-53
2023/11/09 02:59:56;;;;;;;8.25;5.65;;;;;;;;;;5053910;28;20033;-54
2023/11/09 03:02:22;;;;;;;6.90;5.55;;;;;;;;;;5053496;28;20056;-55
2023/11/09 03:04:48;;;;;;;8.13;5.68;;;;;;;;;;5053618;28;20413;-56
2023/11/09 03:07:14;;;;;;;7.18;5.50;;;;;;;;;;5053418;28;20090;-55
2023/11/09 03:09:44;;;;;;;6.95;5.10;;;;;;;;;;5053164;28;20021;-52
2023/11/09 03:12:10;;;;;;;6.25;4.65;;;;;;;;;;5053554;28;20474;-54
2023/11/09 03:14:36;;;;;;;5.18;4.65;;;;;;;;;;5053377;28;20021;-56
2023/11/09 03:17:06;;;;;;;4.80;4.28;;;;;;;;;;5053172;28;20032;-55
2023/11/09 03:19:32;;;;;;;6.00;4.75;;;;;;;;;;5053196;28;20062;-56
2023/11/09 03:21:58;;;;;;;6.15;4.40;;;;;;;;;;5053213;28;20029;-56
2023/11/09 03:24:24;;;;;;;6.65;4.90;;;;;;;;;;5053776;28;20489;-56
2023/11/09 03:26:50;;;;;;;6.97;4.90;;;;;;;;;;5053867;28;20146;-54
2023/11/09 03:29:16;;;;;;;6.47;5.63;;;;;;;;;;5053774;28;20131;-55
2023/11/09 03:31:43;;;;;;;8.05;5.38;;;;;;;;;;5053962;28;20068;-56
2023/11/09 03:34:09;;;;;;;9.35;6.55;;;;;;;;;;5053634;28;20062;-54
2023/11/09 03:36:35;;;;;;;6.55;5.88;;;;;;;;;;5053697;28;20032;-55
2023/11/09 03:39:01;;;;;;;8.02;6.10;;;;;;;;;;5038323;28;20033;-56
2023/11/09 03:41:29;;;;;;;7.60;5.80;;;;;;;;;;5053634;28;20045;-54
2023/11/09 03:43:57;;;;;;;7.78;5.93;;;;;;;;;;5053435;28;20021;-54
2023/11/09 03:46:23;;;;;;;7.25;5.85;;;;;;;;;;5053311;28;20037;-55
2023/11/09 03:48:49;;;;;;;8.05;5.10;;;;;;;;;;5053703;28;20032;-54
2023/11/09 03:51:15;;;;;;;9.02;5.68;;;;;;;;;;5053361;28;20025;-55
2023/11/09 03:53:41;;;;;;;5.60;4.28;;;;;;;;;;5042879;28;20120;-55
2023/11/09 03:56:07;;;;;;;5.32;4.18;;;;;;;;;;5047852;28;20033;-55
2023/11/09 03:58:36;;;;;;;5.05;4.22;;;;;;;;;;5041998;28;20017;-55
2023/11/09 04:01:02;;;;;;;5.00;3.75;;;;;;;;;;5037885;28;20430;-50
2023/11/09 04:03:28;;;;;;;4.80;3.50;;;;;;;;;;5046968;28;20029;-54
2023/11/09 04:05:54;;;;;;;5.35;4.35;;;;;;;;;;5060584;28;20045;-55
2023/11/09 04:08:20;;;;;;;4.80;3.80;;;;;;;;;;5051677;28;20438;-52
2023/11/09 04:10:46;;;;;;;5.18;3.97;;;;;;;;;;5053138;28;20060;-53
2023/11/09 04:13:13;;;;;;;4.35;3.40;;;;;;;;;;5051421;28;20119;-52
2023/11/09 04:15:42;;;;;;;6.07;4.30;;;;;;;;;;5052858;28;20025;-51
2023/11/09 04:18:08;;;;;;;5.50;3.75;;;;;;;;;;5050388;28;20028;-55
2023/11/09 04:20:34;;;;;;;5.50;3.20;;;;;;;;;;5038978;28;20039;-56
2023/11/09 04:23:00;;;;;;;4.72;3.25;;;;;;;;;;5043119;28;20036;-52
2023/11/09 04:25:26;;;;;;;4.00;2.90;;;;;;;;;;5041071;28;20044;-50
2023/11/09 04:27:52;;;;;;;4.63;3.22;;;;;;;;;;5043960;28;20029;-51
2023/11/09 04:30:20;;;;;;;5.57;3.50;;;;;;;;;;5052525;28;20052;-51
2023/11/09 04:32:46;;;;;;;3.45;3.10;;;;;;;;;;5052610;28;20390;-52
2023/11/09 04:35:12;;;;;;;4.18;3.17;;;;;;;;;;5052416;28;20025;-54
2023/11/09 04:37:38;;;;;;;4.10;3.40;;;;;;;;;;5052545;28;20436;-53
2023/11/09 04:40:12;;;;;;;4.88;3.03;;;;;;;;;;5051151;28;20429;-54
2023/11/09 04:42:49;;;;;;;3.83;3.25;;;;;;;;;;5052461;28;20112;-51
2023/11/09 04:45:16;;;;;;;3.15;2.85;;;;;;;;;;5052245;28;20033;-51
2023/11/09 04:47:43;;;;;;;4.72;3.03;;;;;;;;;;5052314;28;20021;-52
2023/11/09 04:50:17;;;;;;;4.10;3.33;;;;;;;;;;5051111;28;20403;-52
2023/11/09 04:52:56;;;;;;;5.35;2.90;;;;;;;;;;5052302;28;20029;-53
2023/11/09 04:55:31;;;;;;;5.97;2.95;;;;;;;;;;5052294;28;20079;-53
2023/11/09 05:08:58;;;;;;;7.32;6.60;;;;;;;;;;5052356;28;20149;-54
2023/11/09 05:11:24;;;;;;;11.00;6.80;;;;;;;;;;5051967;28;20033;-52
2023/11/09 05:13:50;;;;;;;11.57;6.75;;;;;;;;;;5050467;28;20013;-52
2023/11/09 05:16:16;;;;;;;9.55;6.55;;;;;;;;;;5050538;28;20032;-51
2023/11/09 05:18:47;;;;;;;8.20;6.35;;;;;;;;;;5051826;28;20377;-52
2023/11/09 05:21:13;;;;;;;8.70;6.93;;;;;;;;;;5050694;28;20375;-53
2023/11/09 05:23:39;;;;;;;10.80;7.22;;;;;;;;;;5050496;28;20051;-50
2023/11/09 05:26:05;;;;;;;7.90;6.88;;;;;;;;;;5051915;28;20124;-54
2023/11/09 05:28:31;;;;;;;8.77;6.97;;;;;;;;;;5051742;28;20094;-50
2023/11/09 05:30:57;;;;;;;8.77;7.10;;;;;;;;;;5051671;28;20021;-52
2023/11/09 05:33:23;;;;;;;8.88;7.05;;;;;;;;;;5050170;28;20052;-53
2023/11/09 05:35:49;;;;;;;7.43;6.63;;;;;;;;;;5051775;28;20537;-52
2023/11/09 05:38:15;;;;;;;10.27;6.63;;;;;;;;;;5051875;28;20032;-52
2023/11/09 05:40:44;;;;;;;9.48;6.78;;;;;;;;;;5037408;28;20364;-53
2023/11/09 05:43:11;;;;;;;8.43;5.93;;;;;;;;;;5051662;28;20204;-56
2023/11/09 05:45:37;;;;;;;8.93;6.25;;;;;;;;;;5050031;28;20386;-55
2023/11/09 05:48:04;;;;;;;8.52;6.60;;;;;;;;;;5051564;28;20025;-52
2023/11/09 05:50:31;;;;;;;7.15;5.38;;;;;;;;;;5038361;28;20021;-52
2023/11/09 05:52:57;;;;;;;9.18;5.93;;;;;;;;;;5051521;28;20107;-50
2023/11/09 05:55:23;;;;;;;8.48;5.60;;;;;;;;;;5051794;28;20122;-51
2023/11/09 05:57:49;;;;;;;7.97;6.35;;;;;;;;;;5051369;28;20020;-54
2023/11/09 06:00:15;;;;;;;7.88;6.53;;;;;;;;;;5051609;28;20025;-56
2023/11/09 06:02:41;;;;;;;8.93;6.22;;;;;;;;;;5051441;28;20021;-50
2023/11/09 06:05:07;;;;;;;9.63;5.82;;;;;;;;;;5051191;28;20021;-55
2023/11/09 06:07:35;;;;;;;9.98;6.70;;;;;;;;;;5051447;28;20029;-51
2023/11/09 06:10:01;;;;;;;10.75;7.60;;;;;;;;;;5051350;28;20104;-53
2023/11/09 06:12:27;;;;;;;8.35;7.30;;;;;;;;;;5047057;28;20471;-52
2023/11/09 06:14:54;;;;;;;9.77;7.32;;;;;;;;;;5047626;28;20027;-50
2023/11/09 06:17:21;;;;;;;12.48;7.45;;;;;;;;;;5051234;28;20032;-53
2023/11/09 06:19:47;;;;;;;12.52;8.07;;;;;;;;;;5049819;28;20449;-51
2023/11/09 06:22:13;;;;;;;9.73;7.65;;;;;;;;;;5051522;28;20021;-54
2023/11/09 06:24:40;;;;;;;13.00;7.40;;;;;;;;;;5051161;28;20458;-54
2023/11/09 06:27:08;;;;;;;10.20;6.72;;;;;;;;;;5050140;28;20160;-54
2023/11/09 06:29:34;;;;;;;10.27;7.50;;;;;;;;;;5051337;28;20051;-53
2023/11/09 06:32:00;;;;;;;7.90;6.38;;;;;;;;;;5050972;28;20025;-49
2023/11/09 06:34:26;;;;;;;8.70;7.00;;;;;;;;;;5051201;28;20494;-51
2023/11/09 06:36:52;;;;;;;9.48;6.68;;;;;;;;;;5051042;28;20060;-51
2023/11/09 06:39:22;;;;;;;7.60;6.38;;;;;;;;;;5051180;28;20097;-53
2023/11/09 06:41:48;;;;;;;12.32;7.15;;;;;;;;;;5051064;28;20134;-50
2023/11/09 06:44:15;;;;;;;10.02;6.60;;;;;;;;;;5053063;28;20035;-49
2023/11/09 06:46:41;;;;;;;7.00;5.97;;;;;;;;;;5054197;28;20112;-52
2023/11/09 06:49:07;;;;;;;8.93;6.47;;;;;;;;;;5054400;28;20096;-54
2023/11/09 06:51:34;;;;;;;7.25;5.88;;;;;;;;;;5054477;28;20534;-53
2023/11/09 06:54:00;;;;;;;11.18;6.63;;;;;;;;;;5054080;28;20025;-50
2023/11/09 06:56:27;;;;;;;13.57;8.20;;;;;;;;;;5054320;28;20032;-55
2023/11/09 06:58:53;;;;;;;12.63;6.93;;;;;;;;;;5049480;28;20399;-54
2023/11/09 07:01:20;;;;;;;8.35;6.22;;;;;;;;;;5051921;28;20056;-50
2023/11/09 07:04:04;;;;;;;12.18;6.35;;;;;;;;;;5042717;28;20021;-55
2023/11/09 07:06:31;;;;;;;7.93;6.15;;;;;;;;;;5051300;28;20037;-55
2023/11/09 07:08:57;;;;;;;13.27;6.10;;;;;;;;;;5053944;28;20017;-52
2023/11/09 07:11:23;;;;;;;8.82;6.70;;;;;;;;;;5053354;28;20095;-51
2023/11/09 07:13:49;;;;;;;9.48;5.95;;;;;;;;;;5042699;28;20021;-55
2023/11/09 07:16:16;;;;;;;8.15;6.05;;;;;;;;;;5045228;28;20028;-52
2023/11/09 07:18:43;;;;;;;11.85;6.75;;;;;;;;;;5041378;28;20021;-51
2023/11/09 07:21:09;;;;;;;10.18;6.32;;;;;;;;;;5054032;28;20017;-51
2023/11/09 07:23:35;;;;;;;11.02;6.97;;;;;;;;;;5053949;28;20021;-50
2023/11/09 07:26:01;;;;;;;8.25;5.50;;;;;;;;;;5052597;28;20041;-51
2023/11/09 07:28:29;;;;;;;9.30;5.88;;;;;;;;;;5051893;28;20033;-54
2023/11/09 07:30:55;;;;;;;7.43;5.97;;;;;;;;;;5048969;28;20086;-55
2023/11/09 07:33:21;;;;;;;13.05;6.00;;;;;;;;;;5043882;28;20052;-55
2023/11/09 07:35:47;;;;;;;8.50;6.60;;;;;;;;;;5047957;28;20032;-57
2023/11/09 07:38:13;;;;;;;10.52;6.32;;;;;;;;;;5050639;28;20033;-55
2023/11/09 07:40:40;;;;;;;8.32;6.15;;;;;;;;;;5050164;28;20090;-55
2023/11/09 07:43:07;;;;;;;11.07;7.45;;;;;;;;;;5050065;28;20447;-51
2023/11/09 07:45:33;;;;;;;9.93;7.25;;;;;;;;;;5053368;28;20115;-51
2023/11/09 07:47:59;;;;;;;11.77;6.65;;;;;;;;;;5053335;28;20045;-52
2023/11/09 07:50:25;;;;;;;9.13;6.68;;;;;;;;;;5053353;28;20025;-50
2023/11/09 07:52:52;;;;;;;9.10;5.85;;;;;;;;;;5053392;28;20397;-54
2023/11/09 07:55:19;;;;;;;10.30;6.35;;;;;;;;;;5052087;28;20473;-53
2023/11/09 07:57:45;;;;;;;8.73;6.25;;;;;;;;;;5053528;28;20037;-52
2023/11/09 08:00:11;;;;;;;15.50;7.38;;;;;;;;;;5039516;28;20059;-51
2023/11/09 08:02:38;;;;;;;10.98;7.18;;;;;;;;;;5053045;28;20456;-55
2023/11/09 08:05:06;;;;;;;10.02;6.35;;;;;;;;;;5053126;28;20017;-52
2023/11/09 08:07:33;;;;;;;10.00;5.95;;;;;;;;;;5053181;28;20025;-50
2023/11/09 08:09:59;;;;;;;9.90;6.13;;;;;;;;;;5052928;28;20028;-52
2023/11/09 08:12:25;;;;;;;11.27;6.75;;;;;;;;;;5046659;28;20029;-50
2023/11/09 08:14:51;;;;;;;11.73;6.53;;;;;;;;;;5052680;28;20021;-51
2023/11/09 08:17:17;;;;;;;12.38;5.95;;;;;;;;;;5053128;28;20025;-51
2023/11/09 08:19:43;;;;;;;8.80;5.65;;;;;;;;;;5053233;28;20025;-49
2023/11/09 08:22:09;;;;;;;8.85;5.63;;;;;;;;;;5051446;28;20021;-52
2023/11/09 08:24:36;;;;;;;8.85;5.63;;;;;;;;;;5052824;28;20103;-52
2023/11/09 08:27:02;;;;;;;9.20;6.03;;;;;;;;;;5052432;28;20040;-50
2023/11/09 08:29:28;;;;;;;10.63;6.15;;;;;;;;;;5051349;28;20112;-52
2023/11/09 08:32:02;;;;;;;13.93;6.47;;;;;;;;;;5052459;28;20121;-51
2023/11/09 08:34:28;;;;;;;9.13;5.00;;;;;;;;;;5052599;28;20020;-52
2023/11/09 08:36:55;;;;;;;8.25;5.00;;;;;;;;;;5051229;28;20123;-54
2023/11/09 08:39:22;;;;;;;12.13;6.20;;;;;;;;;;5052510;28;20490;-51
2023/11/09 08:41:48;;;;;;;9.02;5.57;;;;;;;;;;5052394;28;20075;-53
2023/11/09 08:44:15;;;;;;;9.18;6.40;;;;;;;;;;5052590;28;20371;-50
2023/11/09 08:46:41;;;;;;;8.93;5.72;;;;;;;;;;5052267;28;20033;-50
2023/11/09 08:49:10;;;;;;;10.60;6.43;;;;;;;;;;5052098;28;20078;-51
2023/11/09 08:51:36;;;;;;;12.63;7.10;;;;;;;;;;5052301;28;20040;-53
2023/11/09 08:54:02;;;;;;;9.98;5.78;;;;;;;;;;5052241;28;20032;-52
2023/11/09 08:56:28;;;;;;;10.63;6.75;;;;;;;;;;5046498;28;20025;-52
2023/11/09 08:58:54;;;;;;;7.72;5.90;;;;;;;;;;5044329;28;20021;-53
2023/11/09 09:01:20;;;;;;;11.90;6.65;;;;;;;;;;5052013;28;20021;-49
2023/11/09 09:03:49;;;;;;;10.23;7.07;;;;;;;;;;5051916;28;20339;-52
2023/11/09 09:06:16;;;;;;;8.55;6.00;;;;;;;;;;5051729;28;20041;-54
2023/11/09 09:08:44;;;;;;;8.85;5.85;;;;;;;;;;5050575;28;20413;-53
2023/11/09 09:11:11;;;;;;;7.47;5.55;;;;;;;;;;5047872;28;20079;-54
2023/11/09 09:13:37;;;;;;;7.10;6.05;;;;;;;;;;5050534;28;20493;-53
2023/11/09 09:16:04;;;;;;;10.15;5.95;;;;;;;;;;5051766;28;20040;-52
2023/11/09 09:18:30;;;;;;;7.38;5.40;;;;;;;;;;5051759;28;20017;-51
2023/11/09 09:20:57;;;;;;;9.30;5.95;;;;;;;;;;5051810;28;20033;-50
2023/11/09 09:23:23;;;;;;;10.65;6.78;;;;;;;;;;5051811;28;20028;-50
2023/11/09 09:25:51;;;;;;;9.95;6.57;;;;;;;;;;5050456;28;20115;-50
2023/11/09 09:28:17;;;;;;;11.70;7.32;;;;;;;;;;5051630;28;20108;-51
2023/11/09 09:30:44;;;;;;;8.15;6.53;;;;;;;;;;5051834;28;20110;-51
2023/11/09 09:33:10;;;;;;;9.88;6.47;;;;;;;;;;5051517;28;20032;-53
2023/11/09 09:35:36;;;;;;;9.90;5.78;;;;;;;;;;5051610;28;20016;-55
2023/11/09 09:38:04;;;;;;;7.38;5.88;;;;;;;;;;5050457;28;20067;-53
2023/11/09 09:40:32;;;;;;;7.13;5.32;;;;;;;;;;5051381;28;20055;-52
2023/11/09 09:42:58;;;;;;;7.15;5.32;;;;;;;;;;5051813;28;20018;-53
2023/11/09 09:45:30;;;;;;;9.30;6.25;;;;;;;;;;5051345;28;20033;-49
2023/11/09 09:47:57;;;;;;;9.30;5.88;;;;;;;;;;5042693;28;20085;-52
2023/11/09 09:50:39;;;;;;;7.63;5.70;;;;;;;;;;5051850;28;20025;-50
2023/11/09 09:53:08;;;;;;;12.05;6.13;;;;;;;;;;5037511;28;20031;-52
2023/11/09 09:55:36;;;;;;;12.70;7.45;;;;;;;;;;5051782;28;20102;-52
2023/11/09 09:58:03;;;;;;;11.98;6.88;;;;;;;;;;5050077;28;20378;-53
2023/11/09 10:00:31;;;;;;;10.68;6.57;;;;;;;;;;5051463;28;20032;-56
2023/11/09 10:02:57;;;;;;;12.25;6.50;;;;;;;;;;5045296;28;20025;-55
2023/11/09 10:05:24;;;;;;;11.23;6.18;;;;;;;;;;5043462;28;20531;-54
2023/11/09 10:07:56;;;;;;;12.98;6.03;;;;;;;;;;5051183;28;20371;-55
2023/11/09 10:10:22;;;;;;;11.77;6.10;;;;;;;;;;5050045;28;20025;-55
2023/11/09 10:12:48;;;;;;;9.32;6.88;;;;;;;;;;5051228;28;20335;-54
2023/11/09 10:15:15;;;;;;;9.55;6.28;;;;;;;;;;5050880;28;20036;-56
2023/11/09 10:17:41;;;;;;;12.93;6.28;;;;;;;;;;5043105;28;20044;-51
2023/11/09 10:20:14;;;;;;;11.20;7.18;;;;;;;;;;5055312;28;20024;-56
2023/11/09 10:22:40;;;;;;;10.82;7.35;;;;;;;;;;5055238;28;20035;-56
2023/11/09 10:25:11;;;;;;;11.30;7.03;;;;;;;;;;5054935;28;20029;-55
2023/11/09 10:27:37;;;;;;;11.77;6.97;;;;;;;;;;5055175;28;20025;-56
2023/11/09 10:30:04;;;;;;;9.70;6.63;;;;;;;;;;5053601;28;20021;-53
2023/11/09 10:32:31;;;;;;;12.10;6.50;;;;;;;;;;5055149;28;20063;-53
2023/11/09 10:35:01;;;;;;;10.15;6.82;;;;;;;;;;5054860;28;20096;-53
2023/11/09 10:37:29;;;;;;;13.98;6.65;;;;;;;;;;5054835;28;20115;-52
2023/11/09 10:39:57;;;;;;;12.57;7.10;;;;;;;;;;5054692;28;20017;-55
2023/11/09 10:42:24;;;;;;;11.73;7.10;;;;;;;;;;5054701;28;20045;-53
2023/11/09 10:44:52;;;;;;;12.75;7.88;;;;;;;;;;5054476;28;20104;-51
2023/11/09 10:47:25;;;;;;;11.30;7.25;;;;;;;;;;5053167;28;20509;-53
2023/11/09 10:49:54;;;;;;;9.70;7.43;;;;;;;;;;5053378;28;20021;-56
2023/11/09 10:52:24;;;;;;;10.88;7.07;;;;;;;;;;5054980;28;20033;-54
2023/11/09 10:54:51;;;;;;;10.70;7.55;;;;;;;;;;5040941;28;20017;-54
2023/11/09 10:57:18;;;;;;;15.80;7.07;;;;;;;;;;5041921;28;20021;-56
2023/11/09 10:59:48;;;;;;;10.48;6.80;;;;;;;;;;5053271;28;20025;-56
2023/11/09 11:02:27;;;;;;;10.18;6.28;;;;;;;;;;5054653;28;20381;-52
2023/11/09 11:04:55;;;;;;;9.10;6.30;;;;;;;;;;5054323;28;20017;-55
2023/11/09 11:07:25;;;;;;;9.18;6.93;;;;;;;;;;5054423;28;20438;-53
2023/11/09 11:09:51;;;;;;;9.57;7.22;;;;;;;;;;5054446;28;20090;-53
2023/11/09 11:12:18;;;;;;;10.23;6.47;;;;;;;;;;5052919;28;20029;-54
2023/11/09 11:14:46;;;;;;;10.30;7.50;;;;;;;;;;5054262;28;20178;-53
2023/11/09 11:17:31;;;;;;;12.40;7.30;;;;;;;;;;5054110;28;20014;-52
2023/11/09 11:19:57;;;;;;;;;;;;;;;;;;5054495;28;20017;-54
2023/11/09 11:22:42;;;;;;;12.18;7.15;;;;;;;;;;5054201;28;20362;-52
2023/11/09 11:25:18;;;;;;;7.88;6.28;;;;;;;;;;5053756;28;20482;-54
2023/11/09 11:27:50;;;;;;;10.20;6.97;;;;;;;;;;5054265;28;20445;-52
2023/11/09 11:30:25;;;;;;;9.77;6.70;;;;;;;;;;5049549;28;20028;-54
2023/11/09 11:32:51;;;;;;;12.95;7.25;;;;;;;;;;5045129;28;20421;-55
2023/11/09 11:35:30;;;;;;;8.98;6.97;;;;;;;;;;5053680;28;20063;-50
2023/11/09 11:38:04;;;;;;;10.82;7.28;;;;;;;;;;5053971;28;20055;-54
2023/11/09 11:40:34;;;;;;;10.98;7.60;;;;;;;;;;5045438;28;20013;-57
2023/11/09 11:43:00;;;;;;;10.27;7.72;;;;;;;;;;5053716;28;20036;-52
2023/11/09 11:45:26;;;;;;;11.85;8.07;;;;;;;;;;5053417;28;20025;-51
2023/11/09 11:48:01;;;;;;;13.07;7.85;;;;;;;;;;5052007;28;20474;-53
2023/11/09 11:50:27;;;;;;;;;;;;;;;;;;5053791;28;20013;-52
2023/11/09 11:53:16;;;;;;;9.25;7.40;;;;;;;;;;5053706;28;19966;-54
2023/11/09 11:55:58;;;;;;;12.68;8.02;;;;;;;;;;5053207;28;20029;-53
2023/11/09 11:58:27;;;;;;;10.43;8.00;;;;;;;;;;5041370;28;20063;-55
2023/11/09 12:00:55;;;;;;;10.93;8.05;;;;;;;;;;5053335;28;20529;-50
2023/11/09 12:03:23;;;;;;;11.05;7.03;;;;;;;;;;5052003;28;20180;-55
2023/11/09 12:05:49;;;;;;;10.50;8.05;;;;;;;;;;5045761;28;20432;-54
2023/11/09 12:08:16;;;;;;;11.98;8.15;;;;;;;;;;5051353;28;20024;-55
2023/11/09 12:10:43;;;;;;;10.32;8.30;;;;;;;;;;5049527;28;20548;-52
2023/11/09 12:13:09;;;;;;;8.70;7.72;;;;;;;;;;5041815;28;20353;-51
2023/11/09 12:15:36;;;;;;;10.40;6.85;;;;;;;;;;5045823;28;20152;-52
2023/11/09 12:18:02;;;;;;;12.15;8.05;;;;;;;;;;5051545;28;20032;-50
2023/11/09 12:20:33;;;;;;;10.65;7.38;;;;;;;;;;5052745;28;20382;-52
2023/11/09 12:23:04;;;;;;;12.50;8.10;;;;;;;;;;5052969;28;20078;-56
2023/11/09 12:25:30;;;;;;;11.02;8.07;;;;;;;;;;5051295;28;20112;-54
2023/11/09 12:28:00;;;;;;;14.10;8.45;;;;;;;;;;5052963;28;20194;-52
2023/11/09 12:30:26;;;;;;;11.57;8.38;;;;;;;;;;5052650;28;20024;-51
2023/11/09 12:32:56;;;;;;;13.73;8.23;;;;;;;;;;5052783;28;20447;-52
2023/11/09 12:35:22;;;;;;;11.82;7.65;;;;;;;;;;5052534;28;20031;-51
2023/11/09 12:38:01;;;;;;;13.32;8.00;;;;;;;;;;5052793;28;20115;-51
2023/11/09 12:40:28;;;;;;;11.95;8.52;;;;;;;;;;5050415;28;20059;-52
2023/11/09 12:42:57;;;;;;;9.75;8.40;;;;;;;;;;5052257;28;20124;-53
2023/11/09 12:45:23;;;;;;;11.68;8.50;;;;;;;;;;5050946;28;20025;-53
2023/11/09 12:47:51;;;;;;;14.23;10.02;;;;;;;;;;5052300;28;20561;-51
2023/11/09 12:50:19;;;;;;;21.25;10.40;;;;;;;;;;5052371;28;20032;-52
2023/11/09 12:52:46;;;;;;;25.90;9.85;;;;;;;;;;5050948;28;20475;-52
2023/11/09 12:55:14;;;;;;;15.55;8.40;;;;;;;;;;5052258;28;20055;-52
2023/11/09 12:57:41;;;;;;;23.60;10.80;;;;;;;;;;5050872;28;20029;-52
2023/11/09 13:00:19;;;;;;;13.82;9.38;;;;;;;;;;5052183;28;20017;-51
2023/11/09 13:02:47;;;;;;;12.05;7.75;;;;;;;;;;5051893;28;20047;-58
2023/11/09 13:05:17;;;;;;;12.88;7.25;;;;;;;;;;5052039;28;20446;-51
2023/11/09 13:07:46;;;;;;;9.98;7.03;;;;;;;;;;5052119;28;20033;-52
2023/11/09 13:10:23;;;;;;;9.38;7.50;;;;;;;;;;5051987;28;20028;-53
2023/11/09 13:12:51;;;;;;;10.27;7.75;;;;;;;;;;5052001;28;20040;-54
2023/11/09 13:17:56;;;;;;;11.88;7.05;;;;;;;;;;5052529;28;20120;-52
2023/11/09 13:20:28;;;;;;;10.48;6.78;;;;;;;;;;5051726;28;20028;-53
2023/11/09 13:23:04;;;;;;;10.38;7.53;;;;;;;;;;5052149;28;20029;-55
2023/11/09 13:25:32;;;;;;;10.00;6.90;;;;;;;;;;5051812;28;20496;-54
2023/11/09 13:27:59;;;;;;;13.73;8.02;;;;;;;;;;5050740;28;20128;-56
2023/11/09 13:30:27;;;;;;;10.15;7.70;;;;;;;;;;5051779;28;20029;-56
2023/11/09 13:32:59;;;;;;;13.00;8.00;;;;;;;;;;5050387;28;20468;-53
2023/11/09 13:35:32;;;;;;;11.40;8.18;;;;;;;;;;5051839;28;20029;-56
2023/11/09 13:37:59;;;;;;;11.90;8.52;;;;;;;;;;5051898;28;20013;-55
2023/11/09 13:43:07;;;;;;;10.57;8.02;;;;;;;;;;5051758;28;20091;-52
2023/11/09 13:45:36;;;;;;;14.38;8.25;;;;;;;;;;5035740;28;20040;-53
2023/11/09 13:51:02;;;;;;;13.27;8.23;;;;;;;;;;5050269;28;20120;-56
2023/11/09 13:58:36;;;;;;;15.20;8.73;;;;;;;;;;5055945;28;20056;-56
2023/11/09 14:01:02;;;;;;;13.85;8.57;;;;;;;;;;5055752;28;20029;-53
2023/11/09 14:03:32;;;;;;;14.00;8.68;;;;;;;;;;5055399;28;20379;-51
2023/11/09 14:05:58;;;;;;;14.77;8.38;;;;;;;;;;5055283;28;20383;-56
2023/11/09 14:08:26;;;;;;;13.93;8.23;;;;;;;;;;5055476;28;20021;-52
2023/11/09 14:10:52;;;;;;;9.27;7.72;;;;;;;;;;5055521;28;20029;-52
2023/11/09 14:13:28;;;;;;;13.68;7.72;;;;;;;;;;5055332;28;20025;-51
2023/11/09 14:16:09;;;;;;;11.75;8.23;;;;;;;;;;5054072;28;20473;-52
2023/11/09 14:18:50;;;;;;;13.07;7.95;;;;;;;;;;5052337;28;20115;-53
2023/11/09 14:21:23;;;;;;;14.40;8.65;;;;;;;;;;5046280;28;20029;-57
2023/11/09 14:23:50;;;;;;;10.77;8.07;;;;;;;;;;5058464;28;20028;-57
2023/11/09 14:26:21;;;;;;;18.48;9.38;;;;;;;;;;5043469;28;20536;-59
2023/11/09 14:28:48;;;;;;;11.05;8.45;;;;;;;;;;5052776;28;20024;-59
2023/11/09 14:31:16;;;;;;;17.02;7.95;;;;;;;;;;5051694;28;20032;-59
2023/11/09 14:33:41;;;;;;;12.68;8.27;;;;;;;;;;5062668;28;20304;-60
2023/11/09 14:36:08;;;;;;;13.90;8.10;;;;;;;;;;5049694;28;20045;-59
2023/11/09 14:38:34;;;;;;;15.70;8.20;;;;;;;;;;5069026;28;20400;-60
2023/11/09 14:41:05;;;;;;;11.60;8.10;;;;;;;;;;5046088;28;20049;-60
2023/11/09 14:43:33;;;;;;;12.57;8.15;;;;;;;;;;5052704;28;20025;-60
2023/11/09 14:46:04;;;;;;;12.50;8.07;;;;;;;;;;5054284;28;20065;-60
2023/11/09 14:48:30;;;;;;;10.82;8.65;;;;;;;;;;5048469;28;20025;-60
2023/11/09 14:50:56;;;;;;;15.10;9.05;;;;;;;;;;5054366;28;20581;-60
2023/11/09 14:53:24;;;;;;;12.45;9.45;;;;;;;;;;5054472;28;20071;-60
2023/11/09 14:55:58;;;;;;;10.93;8.93;;;;;;;;;;5054495;28;20489;-60
2023/11/09 14:58:30;;;;;;;10.80;7.97;;;;;;;;;;5054452;28;20024;-60
2023/11/09 15:00:59;;;;;;;13.80;8.27;;;;;;;;;;5054434;28;20071;-60